createdAt,value
2023-08-08T00:00:06.404Z,99.99
2023-08-08T00:01:06.196Z,99.99
2023-08-08T00:02:06.257Z,99.99
2023-08-08T00:03:06.380Z,99.99
2023-08-08T00:04:06.205Z,99.99
2023-08-08T00:05:06.123Z,99.99
2023-08-08T00:06:06.189Z,99.68
2023-08-08T00:07:06.096Z,99.99
2023-08-08T00:08:06.177Z,99.99
2023-08-08T00:09:06.088Z,99.99
2023-08-08T00:10:06.087Z,99.99
2023-08-08T00:11:06.064Z,99.99
2023-08-08T00:12:06.181Z,99.99
2023-08-08T00:13:06.078Z,99.99
2023-08-08T00:14:06.267Z,99.99
2023-08-08T00:15:06.140Z,99.99
2023-08-08T00:16:06.125Z,99.99
2023-08-08T00:17:06.053Z,99.99
2023-08-08T00:18:06.156Z,99.99
2023-08-08T00:19:06.037Z,99.99
2023-08-08T00:20:05.993Z,99.99
2023-08-08T00:21:05.995Z,99.99
2023-08-08T00:22:05.981Z,99.99
2023-08-08T00:23:06.017Z,99.99
2023-08-08T00:24:06.010Z,99.99
2023-08-08T00:25:06.066Z,99.99
2023-08-08T00:26:05.976Z,99.99
2023-08-08T00:27:06.114Z,99.99
2023-08-08T00:28:05.938Z,99.99
2023-08-08T00:29:05.929Z,99.99
2023-08-08T00:30:05.950Z,99.99
2023-08-08T00:31:05.954Z,99.99
2023-08-08T00:32:05.902Z,99.99
2023-08-08T00:33:05.938Z,99.99
2023-08-08T00:34:05.896Z,99.99
2023-08-08T00:35:06.021Z,99.99
2023-08-08T00:36:05.900Z,99.99
2023-08-08T00:37:05.906Z,99.99
2023-08-08T00:38:05.896Z,99.99
2023-08-08T00:39:05.898Z,99.99
2023-08-08T00:40:05.856Z,99.99
2023-08-08T00:41:05.859Z,99.99
2023-08-08T00:42:05.827Z,99.99
2023-08-08T00:43:05.841Z,99.99
2023-08-08T00:44:05.795Z,99.99
2023-08-08T00:45:05.816Z,99.99
2023-08-08T00:46:05.850Z,99.99
2023-08-08T00:47:05.787Z,99.99
2023-08-08T00:48:05.816Z,99.99
2023-08-08T00:49:05.830Z,99.99
2023-08-08T00:50:05.770Z,99.99
2023-08-08T00:51:05.792Z,99.99
2023-08-08T00:52:05.730Z,99.99
2023-08-08T00:53:05.741Z,99.99
2023-08-08T00:54:05.713Z,99.99
2023-08-08T00:55:05.729Z,99.99
2023-08-08T00:56:05.714Z,99.99
2023-08-08T00:57:05.690Z,99.99
2023-08-08T00:58:05.688Z,99.99
2023-08-08T00:59:05.678Z,99.99
2023-08-08T01:00:05.673Z,99.99
2023-08-08T01:01:05.788Z,99.99
2023-08-08T01:02:05.716Z,99.99
2023-08-08T01:03:05.732Z,99.99
2023-08-08T01:04:05.655Z,99.99
2023-08-08T01:05:05.667Z,99.99
2023-08-08T01:06:05.639Z,99.99
2023-08-08T01:07:05.666Z,99.99
2023-08-08T01:08:05.648Z,99.99
2023-08-08T01:09:05.614Z,99.99
2023-08-08T01:10:05.664Z,99.99
2023-08-08T01:11:05.628Z,99.99
2023-08-08T01:12:05.564Z,99.99
2023-08-08T01:13:05.604Z,99.99
2023-08-08T01:14:05.619Z,99.99
2023-08-08T01:15:05.606Z,99.99
2023-08-08T01:16:05.637Z,99.99
2023-08-08T01:17:05.535Z,99.99
2023-08-08T01:18:05.658Z,99.99
2023-08-08T01:19:05.535Z,99.99
2023-08-08T01:20:05.572Z,99.99
2023-08-08T01:21:05.497Z,99.99
2023-08-08T01:22:05.526Z,99.99
2023-08-08T01:23:05.490Z,99.99
2023-08-08T01:24:05.522Z,99.99
2023-08-08T01:25:05.488Z,99.99
2023-08-08T01:26:05.486Z,99.99
2023-08-08T01:27:05.447Z,99.99
2023-08-08T01:28:05.493Z,99.99
2023-08-08T01:29:05.439Z,99.99
2023-08-08T01:30:05.420Z,99.99
2023-08-08T01:31:05.624Z,99.99
2023-08-08T01:32:05.439Z,99.99
2023-08-08T01:33:05.448Z,99.99
2023-08-08T01:34:05.379Z,99.99
2023-08-08T01:35:05.381Z,99.99
2023-08-08T01:36:05.365Z,99.99
2023-08-08T01:37:05.402Z,99.99
2023-08-08T01:38:05.410Z,99.99
2023-08-08T01:39:05.532Z,99.99
2023-08-08T01:40:05.391Z,99.99
2023-08-08T01:41:05.391Z,99.99
2023-08-08T01:42:05.393Z,99.99
2023-08-08T01:43:05.338Z,99.99
2023-08-08T01:44:05.302Z,99.99
2023-08-08T01:45:05.319Z,99.99
2023-08-08T01:46:05.336Z,99.99
2023-08-08T01:47:05.337Z,99.99
2023-08-08T01:48:05.289Z,99.99
2023-08-08T01:49:05.330Z,99.99
2023-08-08T01:50:05.268Z,99.99
2023-08-08T01:51:05.275Z,99.99
2023-08-08T01:52:05.247Z,99.99
2023-08-08T01:53:05.280Z,99.99
2023-08-08T01:54:05.205Z,99.99
2023-08-08T01:55:05.234Z,99.99
2023-08-08T01:56:05.234Z,99.99
2023-08-08T01:57:05.206Z,99.99
2023-08-08T01:58:05.238Z,99.99
2023-08-08T01:59:05.205Z,99.99
2023-08-08T02:00:05.246Z,99.99
2023-08-08T02:01:05.184Z,99.99
2023-08-08T02:02:05.209Z,99.99
2023-08-08T02:03:05.356Z,99.99
2023-08-08T02:04:05.158Z,99.99
2023-08-08T02:05:05.175Z,99.99
2023-08-08T02:06:05.142Z,99.99
2023-08-08T02:07:05.127Z,99.99
2023-08-08T02:08:05.091Z,99.99
2023-08-08T02:09:05.208Z,99.99
2023-08-08T02:10:05.115Z,99.99
2023-08-08T02:11:05.131Z,99.99
2023-08-08T02:12:05.138Z,99.99
2023-08-08T02:13:05.064Z,99.99
2023-08-08T02:14:05.099Z,99.99
2023-08-08T02:15:05.054Z,99.99
2023-08-08T02:16:05.056Z,99.99
2023-08-08T02:17:05.160Z,99.99
2023-08-08T02:18:05.041Z,99.99
2023-08-08T02:19:05.186Z,99.99
2023-08-08T02:20:05.021Z,99.99
2023-08-08T02:21:05.757Z,99.99
2023-08-08T02:22:04.977Z,99.99
2023-08-08T02:23:05.025Z,99.99
2023-08-08T02:24:04.967Z,99.99
2023-08-08T02:25:05.082Z,99.99
2023-08-08T02:26:04.951Z,99.99
2023-08-08T02:27:04.961Z,99.99
2023-08-08T02:28:04.965Z,99.99
2023-08-08T02:29:05.041Z,99.99
2023-08-08T02:30:04.927Z,99.99
2023-08-08T02:31:04.922Z,99.99
2023-08-08T02:32:04.953Z,99.99
2023-08-08T02:33:05.854Z,99.99
2023-08-08T02:34:04.878Z,99.99
2023-08-08T02:35:04.978Z,99.99
2023-08-08T02:36:04.879Z,99.99
2023-08-08T02:37:04.895Z,99.99
2023-08-08T02:38:04.855Z,99.99
2023-08-08T02:39:04.869Z,99.99
2023-08-08T02:41:56.867Z,99.99
2023-08-08T02:42:31.957Z,99.99
2023-08-08T02:43:31.973Z,99.99
2023-08-08T02:44:31.883Z,99.99
2023-08-08T02:45:31.971Z,99.99
2023-08-08T02:46:31.892Z,99.99
2023-08-08T02:47:31.910Z,99.99
2023-08-08T02:48:31.900Z,99.99
2023-08-08T02:49:31.872Z,99.99
2023-08-08T02:50:31.894Z,99.99
2023-08-08T02:51:31.938Z,99.99
2023-08-08T02:52:31.837Z,99.99
2023-08-08T02:53:31.871Z,99.99
2023-08-08T02:54:31.801Z,99.99
2023-08-08T02:55:31.812Z,99.99
2023-08-08T02:56:31.814Z,99.99
2023-08-08T02:57:31.813Z,99.99
2023-08-08T02:58:31.767Z,99.99
2023-08-08T02:59:40.436Z,99.99
2023-08-08T03:00:39.326Z,99.99
2023-08-08T03:01:39.392Z,99.99
2023-08-08T03:02:31.797Z,99.99
2023-08-08T03:03:31.751Z,99.99
2023-08-08T03:04:31.761Z,99.99
2023-08-08T03:05:31.824Z,99.99
2023-08-08T03:06:31.745Z,99.99
2023-08-08T03:07:31.722Z,99.99
2023-08-08T03:08:31.703Z,99.99
2023-08-08T03:09:31.693Z,99.99
2023-08-08T03:10:31.690Z,99.99
2023-08-08T03:11:31.688Z,99.99
2023-08-08T03:12:31.655Z,99.99
2023-08-08T03:13:31.756Z,99.99
2023-08-08T03:14:31.724Z,99.99
2023-08-08T03:15:39.179Z,99.99
2023-08-08T03:16:31.630Z,99.99
2023-08-08T03:17:40.591Z,99.99
2023-08-08T03:18:31.606Z,99.99
2023-08-08T03:19:31.666Z,99.99
2023-08-08T03:20:31.598Z,99.99
2023-08-08T03:21:31.654Z,99.99
2023-08-08T03:22:31.583Z,99.99
2023-08-08T03:23:31.580Z,99.99
2023-08-08T03:24:31.562Z,99.99
2023-08-08T03:25:31.606Z,99.99
2023-08-08T03:26:31.547Z,99.99
2023-08-08T03:27:31.617Z,99.99
2023-08-08T03:28:31.532Z,99.99
2023-08-08T03:29:31.697Z,99.99
2023-08-08T03:30:31.487Z,99.99
2023-08-08T03:31:31.492Z,99.99
2023-08-08T03:32:31.592Z,99.99
2023-08-08T03:33:31.540Z,99.99
2023-08-08T03:34:31.470Z,99.99
2023-08-08T03:35:31.484Z,99.99
2023-08-08T03:36:31.458Z,99.99
2023-08-08T03:37:31.488Z,99.99
2023-08-08T03:38:31.443Z,99.99
2023-08-08T03:39:31.465Z,99.99
2023-08-08T03:40:31.437Z,99.99
2023-08-08T03:41:31.543Z,99.99
2023-08-08T03:42:31.396Z,99.99
2023-08-08T03:43:31.405Z,99.99
2023-08-08T03:44:31.394Z,99.99
2023-08-08T03:45:31.433Z,99.99
2023-08-08T03:46:31.481Z,99.99
2023-08-08T03:47:31.431Z,99.99
2023-08-08T03:48:31.347Z,99.99
2023-08-08T03:49:31.422Z,99.99
2023-08-08T03:50:31.383Z,99.99
2023-08-08T03:51:31.389Z,99.99
2023-08-08T13:06:01.797Z,84.03
2023-08-08T13:07:00.317Z,84.83
2023-08-08T13:08:00.288Z,84.23
2023-08-08T13:09:00.288Z,84.87
2023-08-08T13:10:00.281Z,86.04
2023-08-08T13:11:00.280Z,85.94
2023-08-08T13:12:00.787Z,84.37
2023-08-08T13:13:00.265Z,86.49
2023-08-08T13:14:00.424Z,86.63
2023-08-08T13:15:00.258Z,87.58
2023-08-08T13:16:00.286Z,87.38
2023-08-08T13:17:00.232Z,88.49
2023-08-08T13:18:00.276Z,88.23
2023-08-08T13:19:00.208Z,88.43
2023-08-08T13:20:00.214Z,87.52
2023-08-08T13:21:00.195Z,88.23
2023-08-08T13:22:00.505Z,88.29
2023-08-08T13:23:00.183Z,88.09
2023-08-08T13:24:00.154Z,87.24
2023-08-08T13:25:00.223Z,87.44
2023-08-08T13:26:00.170Z,87.70
2023-08-08T13:27:00.175Z,87.46
2023-08-08T13:28:00.755Z,86.30
2023-08-08T13:29:00.205Z,85.56
2023-08-08T13:30:00.274Z,85.72
2023-08-08T13:31:00.293Z,83.60
2023-08-08T13:32:00.339Z,81.79
2023-08-08T13:33:00.812Z,83.46
2023-08-08T13:34:00.065Z,82.92
2023-08-08T13:35:00.105Z,81.21
2023-08-08T13:36:00.044Z,80.90
2023-08-08T13:37:00.078Z,79.96
2023-08-08T13:38:00.046Z,81.73
2023-08-08T13:39:00.044Z,79.42
2023-08-08T13:40:00.033Z,79.38
2023-08-08T13:42:33.095Z,76.93
2023-08-08T13:43:33.110Z,76.76
2023-08-08T13:44:33.081Z,77.77
2023-08-08T13:45:33.151Z,77.97
2023-08-08T13:46:33.190Z,79.28
2023-08-08T13:47:33.097Z,77.13
2023-08-08T13:48:33.069Z,78.01
2023-08-08T13:49:34.074Z,77.61
2023-08-08T13:50:33.060Z,77.31
2023-08-08T13:51:33.030Z,77.84
2023-08-08T13:52:33.010Z,79.46
2023-08-08T13:53:33.110Z,78.99
2023-08-08T13:54:33.107Z,79.09
2023-08-08T13:55:33.018Z,80.94
2023-08-08T13:56:32.989Z,80.74
2023-08-08T13:57:32.995Z,80.24
2023-08-08T13:58:32.965Z,80.98
2023-08-08T13:59:32.995Z,81.22
2023-08-08T14:00:32.976Z,81.82
2023-08-08T14:01:33.048Z,81.68
2023-08-08T14:02:33.030Z,82.64
2023-08-08T14:03:33.006Z,82.93
2023-08-08T14:04:32.910Z,83.04
2023-08-08T14:05:32.913Z,82.27
2023-08-08T14:06:32.930Z,82.64
2023-08-08T14:07:32.947Z,83.24
2023-08-08T14:08:33.016Z,82.73
2023-08-08T14:09:32.876Z,82.59
2023-08-08T14:10:32.872Z,82.93
2023-08-08T14:11:32.872Z,83.60
2023-08-08T14:12:32.859Z,82.73
2023-08-08T14:13:32.863Z,81.42
2023-08-08T14:14:32.870Z,80.62
2023-08-08T14:15:32.838Z,81.42
2023-08-08T14:16:32.874Z,81.32
2023-08-08T14:17:32.828Z,81.32
2023-08-08T14:18:32.818Z,81.48
2023-08-08T14:19:32.793Z,81.18
2023-08-08T14:20:33.506Z,81.18
2023-08-08T14:21:32.814Z,81.35
2023-08-08T14:22:32.762Z,81.75
2023-08-08T14:23:32.760Z,81.15
2023-08-08T14:24:32.744Z,81.24
2023-08-08T14:25:32.877Z,81.15
2023-08-08T14:26:32.738Z,81.85
2023-08-08T14:27:32.815Z,81.04
2023-08-08T14:28:32.724Z,80.04
2023-08-08T14:29:32.815Z,81.04
2023-08-08T14:30:32.745Z,81.15
2023-08-08T14:31:34.526Z,81.24
2023-08-08T14:32:33.746Z,80.44
2023-08-08T14:33:32.717Z,79.69
2023-08-08T14:34:32.688Z,80.64
2023-08-08T14:35:32.716Z,80.10
2023-08-08T14:36:32.641Z,80.70
2023-08-08T14:37:32.653Z,81.41
2023-08-08T14:38:32.637Z,80.13
2023-08-08T14:39:32.637Z,81.15
2023-08-08T14:40:33.736Z,81.15
2023-08-08T14:41:32.664Z,80.44
2023-08-08T14:42:32.628Z,80.94
2023-08-08T14:43:32.591Z,81.15
2023-08-08T14:44:32.589Z,79.93
2023-08-08T14:45:32.657Z,81.38
2023-08-08T14:46:32.692Z,82.09
2023-08-08T14:47:32.623Z,82.59
2023-08-08T14:48:32.578Z,82.70
2023-08-08T14:49:32.564Z,83.30
2023-08-08T14:50:32.532Z,81.42
2023-08-08T14:51:33.082Z,82.53
2023-08-08T14:52:32.523Z,81.28
2023-08-08T14:53:32.564Z,82.33
2023-08-08T14:54:32.542Z,83.04
2023-08-08T14:55:32.520Z,83.04
2023-08-08T14:56:32.486Z,83.58
2023-08-08T14:57:32.693Z,82.93
2023-08-08T14:58:32.462Z,82.13
2023-08-08T14:59:32.456Z,81.93
2023-08-08T15:00:32.497Z,82.23
2023-08-08T15:01:32.839Z,83.30
2023-08-08T15:02:32.829Z,82.79
2023-08-08T15:03:32.505Z,83.91
2023-08-08T15:04:32.421Z,80.88
2023-08-08T15:05:32.436Z,81.38
2023-08-08T15:06:32.405Z,81.89
2023-08-08T15:07:32.484Z,82.70
2023-08-08T15:08:32.433Z,81.68
2023-08-08T15:09:32.388Z,81.28
2023-08-08T15:10:35.085Z,81.75
2023-08-08T15:11:32.378Z,81.28
2023-08-08T15:12:32.437Z,78.96
2023-08-08T15:13:32.357Z,80.98
2023-08-08T15:14:32.370Z,81.48
2023-08-08T15:15:32.416Z,80.98
2023-08-08T15:16:32.339Z,79.06
2023-08-08T15:17:32.531Z,79.47
2023-08-08T15:18:32.291Z,78.76
2023-08-08T15:19:32.294Z,76.64
2023-08-08T15:20:32.352Z,77.15
2023-08-08T15:21:32.291Z,76.44
2023-08-08T15:22:32.271Z,75.80
2023-08-08T15:23:32.280Z,73.88
2023-08-08T15:24:32.272Z,74.69
2023-08-08T15:25:32.274Z,73.28
2023-08-08T15:26:32.468Z,73.79
2023-08-08T15:27:32.237Z,72.78
2023-08-08T15:28:32.957Z,72.17
2023-08-08T15:29:32.305Z,71.64
2023-08-08T15:30:32.200Z,72.04
2023-08-08T15:31:32.243Z,71.53
2023-08-08T15:32:32.209Z,71.23
2023-08-08T15:33:32.970Z,70.19
2023-08-08T15:34:32.296Z,70.70
2023-08-08T15:35:32.230Z,70.39
2023-08-08T15:36:32.140Z,69.89
2023-08-08T15:37:32.730Z,70.70
2023-08-08T15:38:32.309Z,70.06
2023-08-08T15:39:32.130Z,70.66
2023-08-08T15:40:32.171Z,70.19
2023-08-08T15:41:32.143Z,68.95
2023-08-08T15:42:32.103Z,69.09
2023-08-08T15:43:32.108Z,69.15
2023-08-08T15:44:32.103Z,69.09
2023-08-08T15:45:32.140Z,69.09
2023-08-08T15:46:32.149Z,69.09
2023-08-08T15:47:32.145Z,69.18
2023-08-08T15:48:32.094Z,69.09
2023-08-08T15:49:32.081Z,69.05
2023-08-08T15:50:32.108Z,69.25
2023-08-08T15:51:32.258Z,68.98
2023-08-08T15:52:32.031Z,68.98
2023-08-08T15:53:32.041Z,69.15
2023-08-08T15:54:32.011Z,69.85
2023-08-08T15:55:32.029Z,70.29
2023-08-08T15:56:31.978Z,69.09
2023-08-08T15:57:32.032Z,70.22
2023-08-08T15:58:31.990Z,70.42
2023-08-08T15:59:31.976Z,70.83
2023-08-08T16:00:31.996Z,71.33
2023-08-08T16:01:32.118Z,71.26
2023-08-08T16:02:32.008Z,72.47
2023-08-08T16:03:32.045Z,73.79
2023-08-08T16:04:31.932Z,73.79
2023-08-08T16:05:31.941Z,74.59
2023-08-08T16:06:32.160Z,75.43
2023-08-08T16:07:31.916Z,76.07
2023-08-08T16:08:31.936Z,77.12
2023-08-08T16:09:31.896Z,79.08
2023-08-08T16:10:31.879Z,79.48
2023-08-08T16:11:31.882Z,80.49
2023-08-08T16:12:31.935Z,80.69
2023-08-08T16:13:31.864Z,82.14
2023-08-08T16:14:31.853Z,81.44
2023-08-08T16:15:31.976Z,81.34
2023-08-08T16:16:31.919Z,81.34
2023-08-08T16:17:31.851Z,82.45
2023-08-08T16:18:31.862Z,82.79
2023-08-08T16:19:31.861Z,82.79
2023-08-08T16:20:31.886Z,83.60
2023-08-08T16:21:31.833Z,83.23
2023-08-08T16:22:31.818Z,83.33
2023-08-08T16:23:31.887Z,83.33
2023-08-08T16:24:31.853Z,83.19
2023-08-08T16:25:31.830Z,83.50
2023-08-08T16:26:31.869Z,83.19
2023-08-08T16:27:31.747Z,83.36
2023-08-08T16:28:31.727Z,83.26
2023-08-08T16:29:31.745Z,82.35
2023-08-08T16:30:31.739Z,83.09
2023-08-08T16:31:35.593Z,82.08
2023-08-08T16:32:31.862Z,82.99
2023-08-08T16:33:31.699Z,82.99
2023-08-08T16:34:31.740Z,83.29
2023-08-08T16:35:31.690Z,82.95
2023-08-08T16:36:31.662Z,82.35
2023-08-08T16:37:31.717Z,81.74
2023-08-08T16:38:31.665Z,81.84
2023-08-08T16:39:31.651Z,81.74
2023-08-08T16:40:31.633Z,80.53
2023-08-08T16:41:31.643Z,81.60
2023-08-08T16:42:31.612Z,81.50
2023-08-08T16:43:31.633Z,81.60
2023-08-08T16:44:31.620Z,81.20
2023-08-08T16:45:31.613Z,80.79
2023-08-08T16:46:31.645Z,80.29
2023-08-08T16:47:31.620Z,80.29
2023-08-08T16:48:31.584Z,80.39
2023-08-08T16:49:31.600Z,79.08
2023-08-08T16:50:31.562Z,79.79
2023-08-08T16:51:31.527Z,80.69
2023-08-08T16:52:31.570Z,80.35
2023-08-08T16:53:31.560Z,80.39
2023-08-08T16:54:31.538Z,80.79
2023-08-08T16:55:31.572Z,80.76
2023-08-08T16:56:31.574Z,80.65
2023-08-08T16:57:31.521Z,79.04
2023-08-08T16:58:31.498Z,79.04
2023-08-08T16:59:31.501Z,79.54
2023-08-08T17:00:31.651Z,79.74
2023-08-08T17:01:31.819Z,80.05
2023-08-08T17:02:31.483Z,79.44
2023-08-08T17:03:31.459Z,79.48
2023-08-08T17:04:31.451Z,79.74
2023-08-08T17:05:32.145Z,79.94
2023-08-08T17:06:31.480Z,80.35
2023-08-08T17:07:31.477Z,79.74
2023-08-08T17:08:31.407Z,79.85
2023-08-08T17:09:31.390Z,79.74
2023-08-08T17:10:31.408Z,80.25
2023-08-08T17:11:31.475Z,81.16
2023-08-08T17:12:31.386Z,80.45
2023-08-08T17:13:31.364Z,80.76
2023-08-08T17:14:31.366Z,79.34
2023-08-08T17:15:31.349Z,79.54
2023-08-08T17:16:31.359Z,80.90
2023-08-08T17:17:31.478Z,80.49
2023-08-08T17:18:31.328Z,81.46
2023-08-08T17:19:31.309Z,80.35
2023-08-08T17:20:31.332Z,79.74
2023-08-08T17:21:31.291Z,79.94
2023-08-08T17:22:31.325Z,80.45
2023-08-08T17:23:31.300Z,80.45
2023-08-08T17:24:36.629Z,80.11
2023-08-08T17:25:32.264Z,80.11
2023-08-08T17:26:31.265Z,80.21
2023-08-08T17:27:31.287Z,79.54
2023-08-08T17:28:33.214Z,80.15
2023-08-08T17:29:31.222Z,79.64
2023-08-08T17:30:31.273Z,80.01
2023-08-08T17:31:31.255Z,79.34
2023-08-08T17:32:31.264Z,79.04
2023-08-08T17:33:31.207Z,79.24
2023-08-08T17:34:31.191Z,78.63
2023-08-08T17:35:31.184Z,77.53
2023-08-08T17:36:31.180Z,77.62
2023-08-08T17:37:31.149Z,77.42
2023-08-08T17:38:31.161Z,77.42
2023-08-08T17:39:31.175Z,77.42
2023-08-08T17:40:31.137Z,78.03
2023-08-08T17:41:31.119Z,77.93
2023-08-08T17:42:31.119Z,78.23
2023-08-08T17:43:31.096Z,79.04
2023-08-08T17:44:31.126Z,78.63
2023-08-08T17:45:31.112Z,79.64
2023-08-08T17:46:31.204Z,78.74
2023-08-08T17:47:31.124Z,78.17
2023-08-08T17:48:31.106Z,79.28
2023-08-08T17:49:31.051Z,78.84
2023-08-08T17:50:31.065Z,78.74
2023-08-08T17:51:31.089Z,78.77
2023-08-08T17:52:31.061Z,78.67
2023-08-08T17:53:31.199Z,79.17
2023-08-08T17:54:31.104Z,79.08
2023-08-08T17:55:34.121Z,78.97
2023-08-08T17:57:01.040Z,78.71
2023-08-08T17:57:36.666Z,78.81
2023-08-08T17:58:35.002Z,79.01
2023-08-08T17:59:36.175Z,79.32
2023-08-08T18:00:31.857Z,79.62
2023-08-08T18:01:32.048Z,79.55
2023-08-08T18:02:34.189Z,79.32
2023-08-08T18:03:34.035Z,79.25
2023-08-08T18:04:32.507Z,80.97
2023-08-08T18:05:33.555Z,79.59
2023-08-08T18:06:32.134Z,80.16
2023-08-08T18:07:34.563Z,80.60
2023-08-08T18:10:08.489Z,81.11
2023-08-08T18:11:09.417Z,81.07
2023-08-08T18:12:11.583Z,81.11
2023-08-08T18:13:07.810Z,80.50
2023-08-08T18:14:10.717Z,80.60
2023-08-08T18:15:09.420Z,81.01
2023-08-08T18:16:30.457Z,81.35
2023-08-08T18:17:48.895Z,81.55
2023-08-08T18:18:08.517Z,81.55
2023-08-08T18:19:07.601Z,81.25
2023-08-08T18:20:07.560Z,81.51
2023-08-08T18:21:07.572Z,81.51
2023-08-08T18:22:07.581Z,81.45
2023-08-08T18:23:07.520Z,81.62
2023-08-08T18:24:07.563Z,81.45
2023-08-08T18:25:07.520Z,81.96
2023-08-08T18:26:07.597Z,81.45
2023-08-08T18:27:07.495Z,81.85
2023-08-08T18:28:07.576Z,82.06
2023-08-08T18:29:07.478Z,82.06
2023-08-08T18:30:07.492Z,81.85
2023-08-08T18:31:07.467Z,81.96
2023-08-08T18:32:07.559Z,83.31
2023-08-08T18:33:07.498Z,82.60
2023-08-08T18:34:07.504Z,83.11
2023-08-08T18:35:07.435Z,83.11
2023-08-08T18:36:07.436Z,82.50
2023-08-08T18:37:07.432Z,82.60
2023-08-08T18:38:07.457Z,83.11
2023-08-08T18:39:07.417Z,83.41
2023-08-08T18:40:08.353Z,84.02
2023-08-08T18:41:07.378Z,83.45
2023-08-08T18:42:07.416Z,83.76
2023-08-08T18:43:07.367Z,84.06
2023-08-08T18:44:07.404Z,83.96
2023-08-08T18:45:07.345Z,84.27
2023-08-08T18:46:07.364Z,83.96
2023-08-08T18:47:07.330Z,83.65
2023-08-08T18:48:07.370Z,83.96
2023-08-08T18:49:07.314Z,83.80
2023-08-08T18:50:07.338Z,83.90
2023-08-08T18:51:07.328Z,84.61
2023-08-08T18:52:07.299Z,84.70
2023-08-08T18:53:07.273Z,84.81
2023-08-08T18:54:07.283Z,84.91
2023-08-08T18:55:07.250Z,84.10
2023-08-08T18:56:07.479Z,84.50
2023-08-08T18:57:07.234Z,84.50
2023-08-08T18:58:07.374Z,84.95
2023-08-08T18:59:07.208Z,84.64
2023-08-08T19:00:07.233Z,84.64
2023-08-08T19:01:07.251Z,84.55
2023-08-08T19:02:07.236Z,85.05
2023-08-08T19:03:07.217Z,85.46
2023-08-08T19:04:07.192Z,85.25
2023-08-08T19:05:07.156Z,85.56
2023-08-08T19:06:07.187Z,85.56
2023-08-08T19:07:07.164Z,85.15
2023-08-08T19:08:07.183Z,85.66
2023-08-08T19:09:07.149Z,85.60
2023-08-08T19:10:07.132Z,85.96
2023-08-08T19:11:07.190Z,86.00
2023-08-08T19:12:07.131Z,85.76
2023-08-08T19:13:07.140Z,86.21
2023-08-08T19:14:07.174Z,86.07
2023-08-08T19:15:07.066Z,85.86
2023-08-08T19:16:07.155Z,86.00
2023-08-08T19:17:07.053Z,85.70
2023-08-08T19:18:07.088Z,85.36
2023-08-08T19:19:07.070Z,86.21
2023-08-08T19:20:07.105Z,85.80
2023-08-08T19:21:07.040Z,85.90
2023-08-08T19:22:07.089Z,86.00
2023-08-08T19:23:07.009Z,86.27
2023-08-08T19:24:07.027Z,86.21
2023-08-08T19:25:06.981Z,86.27
2023-08-08T19:26:07.029Z,86.10
2023-08-08T19:27:07.008Z,86.10
2023-08-08T19:28:06.973Z,86.21
2023-08-08T19:29:06.959Z,86.10
2023-08-08T19:30:08.230Z,86.31
2023-08-08T19:31:06.935Z,86.31
2023-08-08T19:32:07.056Z,86.82
2023-08-08T19:33:07.095Z,86.65
2023-08-08T19:34:07.951Z,86.86
2023-08-08T19:35:06.983Z,86.86
2023-08-08T19:36:06.997Z,86.96
2023-08-08T19:37:06.894Z,86.71
2023-08-08T19:38:06.954Z,86.96
2023-08-08T19:39:06.907Z,86.76
2023-08-08T19:40:06.878Z,87.16
2023-08-08T19:41:06.867Z,86.76
2023-08-08T19:42:06.883Z,86.65
2023-08-08T19:43:06.917Z,86.55
2023-08-08T19:44:06.892Z,86.65
2023-08-08T19:45:06.870Z,86.65
2023-08-08T19:46:07.900Z,86.21
2023-08-08T19:47:06.808Z,86.41
2023-08-08T19:48:06.881Z,86.35
2023-08-08T19:49:06.922Z,86.31
2023-08-08T19:50:07.086Z,86.25
2023-08-08T19:51:06.770Z,86.41
2023-08-08T19:52:06.770Z,86.61
2023-08-08T19:53:07.015Z,86.41
2023-08-08T19:54:07.707Z,86.31
2023-08-08T19:55:06.729Z,86.10
2023-08-08T19:56:06.764Z,86.21
2023-08-08T19:57:07.307Z,86.21
2023-08-08T19:58:06.734Z,86.21
2023-08-08T19:59:06.711Z,86.21
2023-08-08T20:00:06.873Z,85.76
2023-08-08T20:01:06.727Z,85.66
2023-08-08T20:02:06.822Z,85.70
2023-08-08T20:03:06.804Z,84.89
2023-08-08T20:04:06.683Z,85.56
2023-08-08T20:05:06.670Z,85.15
2023-08-08T20:06:06.697Z,84.85
2023-08-08T20:07:06.645Z,84.89
2023-08-08T20:08:06.689Z,85.50
2023-08-08T20:09:06.628Z,85.90
2023-08-08T20:10:06.672Z,85.96
2023-08-08T20:11:06.631Z,86.10
2023-08-08T20:12:06.640Z,86.10
2023-08-08T20:13:06.595Z,86.27
2023-08-08T20:14:06.611Z,87.52
2023-08-08T20:15:06.652Z,88.23
2023-08-08T20:17:19.303Z,87.63
2023-08-08T20:18:19.254Z,88.34
2023-08-08T20:19:19.252Z,88.13
2023-08-08T20:20:19.230Z,87.63
2023-08-08T20:21:19.248Z,87.52
2023-08-08T20:22:19.216Z,88.34
2023-08-08T20:23:19.256Z,87.52
2023-08-08T20:24:19.204Z,89.35
2023-08-08T20:25:19.206Z,88.58
2023-08-08T20:26:19.255Z,88.34
2023-08-08T20:27:19.174Z,88.58
2023-08-08T20:28:19.172Z,88.64
2023-08-08T20:29:19.187Z,88.89
2023-08-08T20:30:19.161Z,87.57
2023-08-08T20:31:20.171Z,87.77
2023-08-08T20:32:19.178Z,88.07
2023-08-08T20:33:19.164Z,88.28
2023-08-08T20:34:19.125Z,87.46
2023-08-08T20:35:19.181Z,87.87
2023-08-08T20:36:19.115Z,87.67
2023-08-08T20:37:19.148Z,87.26
2023-08-08T20:38:19.110Z,87.22
2023-08-08T20:39:20.003Z,88.07
2023-08-08T20:40:19.113Z,88.07
2023-08-08T20:41:19.096Z,88.78
2023-08-08T20:42:19.113Z,89.09
2023-08-08T20:43:19.072Z,89.74
2023-08-08T20:44:19.070Z,89.74
2023-08-08T20:45:19.043Z,90.00
2023-08-08T20:46:19.061Z,89.84
2023-08-08T20:47:19.031Z,90.75
2023-08-08T20:48:19.002Z,90.55
2023-08-08T20:49:19.020Z,90.25
2023-08-08T20:50:19.035Z,90.55
2023-08-08T20:51:18.997Z,90.25
2023-08-08T20:52:19.071Z,90.96
2023-08-08T20:53:19.001Z,90.86
2023-08-08T20:54:18.995Z,90.86
2023-08-08T20:55:18.972Z,90.75
2023-08-08T20:56:19.011Z,90.45
2023-08-08T20:57:18.964Z,91.06
2023-08-08T20:58:18.920Z,91.16
2023-08-08T20:59:18.932Z,92.18
2023-08-08T21:00:18.931Z,92.07
2023-08-08T21:01:18.999Z,92.07
2023-08-08T21:02:21.248Z,91.36
2023-08-08T21:03:19.008Z,91.36
2023-08-08T21:04:18.933Z,91.67
2023-08-08T21:05:18.874Z,92.07
2023-08-08T21:06:18.889Z,92.22
2023-08-08T21:07:18.903Z,92.28
2023-08-08T21:08:18.917Z,92.38
2023-08-08T21:09:18.862Z,92.07
2023-08-08T21:10:18.838Z,91.97
2023-08-08T21:11:18.836Z,92.07
2023-08-08T21:12:18.874Z,91.77
2023-08-08T21:13:18.821Z,92.07
2023-08-08T21:14:18.828Z,92.12
2023-08-08T21:15:18.834Z,91.91
2023-08-08T21:16:18.821Z,91.97
2023-08-08T21:17:18.860Z,92.32
2023-08-08T21:18:18.753Z,92.02
2023-08-08T21:19:18.752Z,92.12
2023-08-08T21:20:18.754Z,92.28
2023-08-08T21:21:19.585Z,92.32
2023-08-08T21:22:18.759Z,91.91
2023-08-08T21:23:18.743Z,92.07
2023-08-08T21:24:18.857Z,92.18
2023-08-08T21:25:18.721Z,92.38
2023-08-08T21:26:26.250Z,92.02
2023-08-08T21:27:19.738Z,92.48
2023-08-08T21:28:18.679Z,92.48
2023-08-08T21:29:18.687Z,92.07
2023-08-08T21:30:18.685Z,92.12
2023-08-08T21:31:18.726Z,92.52
2023-08-08T21:32:18.660Z,92.48
2023-08-08T21:33:18.774Z,92.22
2023-08-08T21:34:18.636Z,92.07
2023-08-08T21:35:18.638Z,92.48
2023-08-08T21:36:18.685Z,92.48
2023-08-08T21:37:18.608Z,92.07
2023-08-08T21:38:18.606Z,91.87
2023-08-08T21:39:18.672Z,92.07
2023-08-08T21:40:18.583Z,92.28
2023-08-08T21:41:18.595Z,92.18
2023-08-08T21:42:18.577Z,92.07
2023-08-08T21:43:18.572Z,92.42
2023-08-08T21:44:18.628Z,92.48
2023-08-08T21:45:18.604Z,92.18
2023-08-08T21:46:18.551Z,92.38
2023-08-08T21:47:18.563Z,92.22
2023-08-08T21:48:18.577Z,92.63
2023-08-08T21:49:18.528Z,92.32
2023-08-08T21:50:18.539Z,93.33
2023-08-08T21:51:18.515Z,92.89
2023-08-08T21:52:18.494Z,93.33
2023-08-08T21:53:18.503Z,93.54
2023-08-08T21:54:18.466Z,93.99
2023-08-08T21:55:18.480Z,94.09
2023-08-08T21:56:18.488Z,94.70
2023-08-08T21:57:18.442Z,94.25
2023-08-08T21:58:18.445Z,95.01
2023-08-08T21:59:18.459Z,95.26
2023-08-08T22:00:18.480Z,94.45
2023-08-08T22:01:18.453Z,94.76
2023-08-08T22:02:18.478Z,94.76
2023-08-08T22:03:18.457Z,94.15
2023-08-08T22:04:18.462Z,94.35
2023-08-08T22:05:18.416Z,94.15
2023-08-08T22:06:18.377Z,94.25
2023-08-08T22:07:18.411Z,94.15
2023-08-08T22:08:18.391Z,93.99
2023-08-08T22:09:18.416Z,94.05
2023-08-08T22:10:18.369Z,94.05
2023-08-08T22:11:18.350Z,94.45